sensor_id;sensor_type;location;lat;lon;timestamp;P1;durP1;ratioP1;P2;durP2;ratioP2
12880;SDS011;6508;53.786;9.996;2022-08-21T00:02:01;6.13;;;5.82;;
12880;SDS011;6508;53.786;9.996;2022-08-21T00:04:29;5.93;;;5.53;;
12880;SDS011;6508;53.786;9.996;2022-08-21T00:06:57;6.50;;;6.00;;
12880;SDS011;6508;53.786;9.996;2022-08-21T00:09:25;6.70;;;6.18;;
12880;SDS011;6508;53.786;9.996;2022-08-21T00:11:52;7.25;;;6.75;;
12880;SDS011;6508;53.786;9.996;2022-08-21T00:14:21;7.75;;;7.28;;
12880;SDS011;6508;53.786;9.996;2022-08-21T00:16:50;7.22;;;6.70;;
12880;SDS011;6508;53.786;9.996;2022-08-21T00:19:20;8.35;;;7.85;;
12880;SDS011;6508;53.786;9.996;2022-08-21T00:21:51;9.65;;;8.95;;
12880;SDS011;6508;53.786;9.996;2022-08-21T00:24:19;9.13;;;8.30;;
12880;SDS011;6508;53.786;9.996;2022-08-21T00:26:47;8.70;;;8.07;;
12880;SDS011;6508;53.786;9.996;2022-08-21T00:29:14;11.15;;;10.13;;
12880;SDS011;6508;53.786;9.996;2022-08-21T00:31:43;10.48;;;9.73;;
12880;SDS011;6508;53.786;9.996;2022-08-21T00:34:11;9.65;;;8.95;;
12880;SDS011;6508;53.786;9.996;2022-08-21T00:36:39;13.35;;;12.00;;
12880;SDS011;6508;53.786;9.996;2022-08-21T00:39:08;10.93;;;10.02;;
12880;SDS011;6508;53.786;9.996;2022-08-21T00:41:36;10.30;;;9.48;;
12880;SDS011;6508;53.786;9.996;2022-08-21T00:44:05;8.73;;;8.13;;
12880;SDS011;6508;53.786;9.996;2022-08-21T00:46:33;9.93;;;9.35;;
12880;SDS011;6508;53.786;9.996;2022-08-21T00:49:03;10.07;;;9.35;;
12880;SDS011;6508;53.786;9.996;2022-08-21T00:51:33;10.45;;;9.85;;
12880;SDS011;6508;53.786;9.996;2022-08-21T00:54:04;10.82;;;10.15;;
12880;SDS011;6508;53.786;9.996;2022-08-21T00:56:40;11.10;;;10.23;;
12880;SDS011;6508;53.786;9.996;2022-08-21T00:59:08;10.18;;;9.60;;
12880;SDS011;6508;53.786;9.996;2022-08-21T01:01:37;10.05;;;9.35;;
12880;SDS011;6508;53.786;9.996;2022-08-21T01:04:06;9.75;;;8.93;;
12880;SDS011;6508;53.786;9.996;2022-08-21T01:06:34;9.98;;;9.38;;
12880;SDS011;6508;53.786;9.996;2022-08-21T01:09:01;11.13;;;10.25;;
12880;SDS011;6508;53.786;9.996;2022-08-21T01:11:29;11.27;;;10.45;;
12880;SDS011;6508;53.786;9.996;2022-08-21T01:13:57;11.13;;;10.57;;
12880;SDS011;6508;53.786;9.996;2022-08-21T01:16:25;11.27;;;10.57;;
12880;SDS011;6508;53.786;9.996;2022-08-21T01:18:52;11.55;;;10.82;;
12880;SDS011;6508;53.786;9.996;2022-08-21T01:21:23;11.63;;;10.82;;
12880;SDS011;6508;53.786;9.996;2022-08-21T01:23:54;11.05;;;10.35;;
12880;SDS011;6508;53.786;9.996;2022-08-21T01:26:24;11.70;;;10.93;;
12880;SDS011;6508;53.786;9.996;2022-08-21T01:29:01;10.18;;;9.57;;
12880;SDS011;6508;53.786;9.996;2022-08-21T01:31:30;9.60;;;8.90;;
12880;SDS011;6508;53.786;9.996;2022-08-21T01:33:59;11.38;;;10.63;;
12880;SDS011;6508;53.786;9.996;2022-08-21T01:36:28;11.13;;;10.13;;
12880;SDS011;6508;53.786;9.996;2022-08-21T01:38:56;10.77;;;10.27;;
12880;SDS011;6508;53.786;9.996;2022-08-21T01:41:23;10.60;;;9.90;;
12880;SDS011;6508;53.786;9.996;2022-08-21T01:43:51;10.13;;;9.52;;
12880;SDS011;6508;53.786;9.996;2022-08-21T01:46:18;11.15;;;10.23;;
12880;SDS011;6508;53.786;9.996;2022-08-21T01:48:46;10.55;;;9.95;;
12880;SDS011;6508;53.786;9.996;2022-08-21T01:51:14;10.68;;;10.07;;
12880;SDS011;6508;53.786;9.996;2022-08-21T01:53:43;9.20;;;8.50;;
12880;SDS011;6508;53.786;9.996;2022-08-21T01:56:12;11.40;;;10.57;;
12880;SDS011;6508;53.786;9.996;2022-08-21T01:58:40;10.60;;;9.85;;
12880;SDS011;6508;53.786;9.996;2022-08-21T02:01:08;10.27;;;9.63;;
12880;SDS011;6508;53.786;9.996;2022-08-21T02:03:36;9.73;;;9.13;;
12880;SDS011;6508;53.786;9.996;2022-08-21T02:06:05;10.65;;;9.98;;
12880;SDS011;6508;53.786;9.996;2022-08-21T02:08:33;9.85;;;8.70;;
12880;SDS011;6508;53.786;9.996;2022-08-21T02:11:02;9.43;;;8.80;;
12880;SDS011;6508;53.786;9.996;2022-08-21T02:13:30;9.75;;;9.25;;
12880;SDS011;6508;53.786;9.996;2022-08-21T02:15:58;11.75;;;10.85;;
12880;SDS011;6508;53.786;9.996;2022-08-21T02:18:25;9.75;;;9.07;;
12880;SDS011;6508;53.786;9.996;2022-08-21T02:20:53;10.07;;;9.27;;
12880;SDS011;6508;53.786;9.996;2022-08-21T02:23:22;9.15;;;8.70;;
12880;SDS011;6508;53.786;9.996;2022-08-21T02:25:52;9.77;;;9.18;;
12880;SDS011;6508;53.786;9.996;2022-08-21T02:28:22;9.43;;;8.65;;
12880;SDS011;6508;53.786;9.996;2022-08-21T02:30:51;8.85;;;8.30;;
12880;SDS011;6508;53.786;9.996;2022-08-21T02:33:19;9.43;;;8.93;;
12880;SDS011;6508;53.786;9.996;2022-08-21T02:35:47;9.48;;;8.88;;
12880;SDS011;6508;53.786;9.996;2022-08-21T02:38:17;9.38;;;8.68;;
12880;SDS011;6508;53.786;9.996;2022-08-21T02:40:45;9.23;;;8.73;;
12880;SDS011;6508;53.786;9.996;2022-08-21T02:43:16;8.15;;;7.63;;
12880;SDS011;6508;53.786;9.996;2022-08-21T02:45:46;8.70;;;8.02;;
12880;SDS011;6508;53.786;9.996;2022-08-21T02:48:14;8.32;;;7.90;;
12880;SDS011;6508;53.786;9.996;2022-08-21T02:50:46;8.02;;;7.65;;
12880;SDS011;6508;53.786;9.996;2022-08-21T02:53:15;6.18;;;5.70;;
12880;SDS011;6508;53.786;9.996;2022-08-21T02:55:43;6.25;;;5.95;;
12880;SDS011;6508;53.786;9.996;2022-08-21T02:58:11;7.60;;;7.07;;
12880;SDS011;6508;53.786;9.996;2022-08-21T03:00:40;6.80;;;6.28;;
12880;SDS011;6508;53.786;9.996;2022-08-21T03:03:11;7.93;;;7.32;;
12880;SDS011;6508;53.786;9.996;2022-08-21T03:05:39;7.85;;;7.30;;
12880;SDS011;6508;53.786;9.996;2022-08-21T03:08:09;7.05;;;6.65;;
12880;SDS011;6508;53.786;9.996;2022-08-21T03:10:37;7.70;;;7.10;;
12880;SDS011;6508;53.786;9.996;2022-08-21T03:13:06;8.57;;;8.10;;
12880;SDS011;6508;53.786;9.996;2022-08-21T03:15:34;6.65;;;6.25;;
12880;SDS011;6508;53.786;9.996;2022-08-21T03:18:02;6.82;;;6.50;;
12880;SDS011;6508;53.786;9.996;2022-08-21T03:20:31;6.68;;;6.38;;
12880;SDS011;6508;53.786;9.996;2022-08-21T03:22:59;8.32;;;7.63;;
12880;SDS011;6508;53.786;9.996;2022-08-21T03:25:28;8.52;;;8.10;;
12880;SDS011;6508;53.786;9.996;2022-08-21T03:28:09;7.70;;;7.25;;
12880;SDS011;6508;53.786;9.996;2022-08-21T03:30:39;8.20;;;7.75;;
12880;SDS011;6508;53.786;9.996;2022-08-21T03:33:06;7.57;;;7.15;;
12880;SDS011;6508;53.786;9.996;2022-08-21T03:35:40;8.20;;;7.68;;
12880;SDS011;6508;53.786;9.996;2022-08-21T03:38:08;8.80;;;8.30;;
12880;SDS011;6508;53.786;9.996;2022-08-21T03:40:39;7.03;;;6.53;;
12880;SDS011;6508;53.786;9.996;2022-08-21T03:43:06;8.23;;;7.72;;
12880;SDS011;6508;53.786;9.996;2022-08-21T03:45:35;8.93;;;8.52;;
12880;SDS011;6508;53.786;9.996;2022-08-21T03:48:04;9.82;;;9.27;;
12880;SDS011;6508;53.786;9.996;2022-08-21T03:50:35;8.77;;;8.18;;
12880;SDS011;6508;53.786;9.996;2022-08-21T03:53:08;9.15;;;8.75;;
12880;SDS011;6508;53.786;9.996;2022-08-21T03:55:43;8.80;;;8.20;;
12880;SDS011;6508;53.786;9.996;2022-08-21T03:58:11;8.77;;;8.20;;
12880;SDS011;6508;53.786;9.996;2022-08-21T04:00:43;8.48;;;8.07;;
12880;SDS011;6508;53.786;9.996;2022-08-21T04:03:10;8.57;;;8.13;;
12880;SDS011;6508;53.786;9.996;2022-08-21T04:05:38;8.98;;;8.43;;
12880;SDS011;6508;53.786;9.996;2022-08-21T04:08:08;8.18;;;7.78;;
12880;SDS011;6508;53.786;9.996;2022-08-21T04:10:36;8.60;;;7.90;;
12880;SDS011;6508;53.786;9.996;2022-08-21T04:13:05;9.95;;;9.50;;
12880;SDS011;6508;53.786;9.996;2022-08-21T04:15:33;7.82;;;7.32;;
12880;SDS011;6508;53.786;9.996;2022-08-21T04:18:02;8.63;;;8.02;;
12880;SDS011;6508;53.786;9.996;2022-08-21T04:20:30;8.73;;;8.30;;
12880;SDS011;6508;53.786;9.996;2022-08-21T04:22:58;7.93;;;7.43;;
12880;SDS011;6508;53.786;9.996;2022-08-21T04:25:27;8.02;;;7.65;;
12880;SDS011;6508;53.786;9.996;2022-08-21T04:27:55;8.45;;;7.93;;
12880;SDS011;6508;53.786;9.996;2022-08-21T04:30:23;6.60;;;6.20;;
12880;SDS011;6508;53.786;9.996;2022-08-21T04:32:55;8.27;;;7.85;;
12880;SDS011;6508;53.786;9.996;2022-08-21T04:35:24;8.13;;;7.63;;
12880;SDS011;6508;53.786;9.996;2022-08-21T04:37:52;7.68;;;7.07;;
12880;SDS011;6508;53.786;9.996;2022-08-21T04:40:20;7.18;;;6.78;;
12880;SDS011;6508;53.786;9.996;2022-08-21T04:42:50;8.82;;;8.15;;
12880;SDS011;6508;53.786;9.996;2022-08-21T04:45:19;8.35;;;7.85;;
12880;SDS011;6508;53.786;9.996;2022-08-21T04:47:48;7.55;;;7.25;;
12880;SDS011;6508;53.786;9.996;2022-08-21T04:50:18;8.48;;;8.02;;
12880;SDS011;6508;53.786;9.996;2022-08-21T04:53:02;7.22;;;6.63;;
12880;SDS011;6508;53.786;9.996;2022-08-21T04:55:30;8.18;;;7.63;;
12880;SDS011;6508;53.786;9.996;2022-08-21T04:57:59;6.40;;;6.03;;
12880;SDS011;6508;53.786;9.996;2022-08-21T05:00:27;6.03;;;5.72;;
12880;SDS011;6508;53.786;9.996;2022-08-21T05:02:55;5.55;;;5.30;;
12880;SDS011;6508;53.786;9.996;2022-08-21T05:05:27;5.50;;;5.05;;
12880;SDS011;6508;53.786;9.996;2022-08-21T05:07:55;5.05;;;4.75;;
12880;SDS011;6508;53.786;9.996;2022-08-21T05:10:23;5.95;;;5.65;;
12880;SDS011;6508;53.786;9.996;2022-08-21T05:12:52;5.10;;;4.78;;
12880;SDS011;6508;53.786;9.996;2022-08-21T05:15:21;5.72;;;5.32;;
12880;SDS011;6508;53.786;9.996;2022-08-21T05:17:48;4.97;;;4.68;;
12880;SDS011;6508;53.786;9.996;2022-08-21T05:20:26;4.72;;;4.40;;
12880;SDS011;6508;53.786;9.996;2022-08-21T05:22:54;4.63;;;4.32;;
12880;SDS011;6508;53.786;9.996;2022-08-21T05:25:22;4.55;;;4.18;;
12880;SDS011;6508;53.786;9.996;2022-08-21T05:27:49;4.28;;;3.97;;
12880;SDS011;6508;53.786;9.996;2022-08-21T05:30:18;4.28;;;3.97;;
12880;SDS011;6508;53.786;9.996;2022-08-21T05:32:47;5.50;;;5.05;;
12880;SDS011;6508;53.786;9.996;2022-08-21T05:35:15;6.38;;;4.95;;
12880;SDS011;6508;53.786;9.996;2022-08-21T05:37:42;5.00;;;4.63;;
12880;SDS011;6508;53.786;9.996;2022-08-21T05:40:10;5.30;;;4.43;;
12880;SDS011;6508;53.786;9.996;2022-08-21T05:42:48;6.60;;;3.97;;
12880;SDS011;6508;53.786;9.996;2022-08-21T05:45:20;4.00;;;3.80;;
12880;SDS011;6508;53.786;9.996;2022-08-21T05:48:10;4.03;;;3.75;;
12880;SDS011;6508;53.786;9.996;2022-08-21T05:50:38;4.45;;;3.55;;
12880;SDS011;6508;53.786;9.996;2022-08-21T05:53:06;4.30;;;3.95;;
12880;SDS011;6508;53.786;9.996;2022-08-21T05:55:35;5.43;;;4.05;;
12880;SDS011;6508;53.786;9.996;2022-08-21T05:58:08;6.50;;;3.92;;
12880;SDS011;6508;53.786;9.996;2022-08-21T06:00:35;4.32;;;4.05;;
12880;SDS011;6508;53.786;9.996;2022-08-21T06:03:03;4.80;;;4.15;;
12880;SDS011;6508;53.786;9.996;2022-08-21T06:05:32;6.05;;;4.60;;
12880;SDS011;6508;53.786;9.996;2022-08-21T06:08:03;4.65;;;4.35;;
12880;SDS011;6508;53.786;9.996;2022-08-21T06:10:30;6.13;;;5.10;;
12880;SDS011;6508;53.786;9.996;2022-08-21T06:12:58;4.38;;;4.07;;
12880;SDS011;6508;53.786;9.996;2022-08-21T06:15:26;5.10;;;4.80;;
12880;SDS011;6508;53.786;9.996;2022-08-21T06:17:54;5.30;;;4.68;;
12880;SDS011;6508;53.786;9.996;2022-08-21T06:20:22;6.47;;;4.38;;
12880;SDS011;6508;53.786;9.996;2022-08-21T06:22:51;5.00;;;4.70;;
12880;SDS011;6508;53.786;9.996;2022-08-21T06:25:19;5.45;;;5.00;;
12880;SDS011;6508;53.786;9.996;2022-08-21T06:27:46;5.70;;;5.20;;
12880;SDS011;6508;53.786;9.996;2022-08-21T06:30:14;5.57;;;5.13;;
12880;SDS011;6508;53.786;9.996;2022-08-21T06:32:42;4.28;;;4.05;;
12880;SDS011;6508;53.786;9.996;2022-08-21T06:35:10;4.57;;;4.25;;
12880;SDS011;6508;53.786;9.996;2022-08-21T06:37:38;5.10;;;4.70;;
12880;SDS011;6508;53.786;9.996;2022-08-21T06:40:07;5.40;;;4.95;;
12880;SDS011;6508;53.786;9.996;2022-08-21T06:42:38;4.78;;;4.47;;
12880;SDS011;6508;53.786;9.996;2022-08-21T06:45:08;5.43;;;4.18;;
12880;SDS011;6508;53.786;9.996;2022-08-21T06:47:36;5.05;;;4.72;;
12880;SDS011;6508;53.786;9.996;2022-08-21T06:50:04;5.80;;;5.25;;
12880;SDS011;6508;53.786;9.996;2022-08-21T06:52:34;7.50;;;4.72;;
12880;SDS011;6508;53.786;9.996;2022-08-21T06:55:01;5.63;;;4.50;;
12880;SDS011;6508;53.786;9.996;2022-08-21T06:57:31;4.50;;;4.20;;
12880;SDS011;6508;53.786;9.996;2022-08-21T06:59:58;5.43;;;5.00;;
12880;SDS011;6508;53.786;9.996;2022-08-21T07:02:26;4.72;;;4.32;;
12880;SDS011;6508;53.786;9.996;2022-08-21T07:04:53;4.03;;;3.60;;
12880;SDS011;6508;53.786;9.996;2022-08-21T07:07:21;4.10;;;3.70;;
12880;SDS011;6508;53.786;9.996;2022-08-21T07:09:49;3.45;;;3.25;;
12880;SDS011;6508;53.786;9.996;2022-08-21T07:12:17;3.72;;;2.92;;
12880;SDS011;6508;53.786;9.996;2022-08-21T07:14:46;4.95;;;3.10;;
12880;SDS011;6508;53.786;9.996;2022-08-21T07:17:13;3.83;;;3.42;;
12880;SDS011;6508;53.786;9.996;2022-08-21T07:19:41;3.08;;;2.88;;
12880;SDS011;6508;53.786;9.996;2022-08-21T07:22:09;4.25;;;3.35;;
12880;SDS011;6508;53.786;9.996;2022-08-21T07:24:37;3.88;;;3.20;;
12880;SDS011;6508;53.786;9.996;2022-08-21T07:27:04;3.83;;;3.42;;
12880;SDS011;6508;53.786;9.996;2022-08-21T07:29:35;3.20;;;2.95;;
12880;SDS011;6508;53.786;9.996;2022-08-21T07:32:05;2.78;;;2.50;;
12880;SDS011;6508;53.786;9.996;2022-08-21T07:34:32;3.33;;;3.03;;
12880;SDS011;6508;53.786;9.996;2022-08-21T07:37:00;3.45;;;3.20;;
12880;SDS011;6508;53.786;9.996;2022-08-21T07:39:35;3.42;;;3.22;;
12880;SDS011;6508;53.786;9.996;2022-08-21T07:42:03;3.28;;;2.97;;
12880;SDS011;6508;53.786;9.996;2022-08-21T07:44:34;3.47;;;3.13;;
12880;SDS011;6508;53.786;9.996;2022-08-21T07:47:01;3.53;;;3.22;;
12880;SDS011;6508;53.786;9.996;2022-08-21T07:49:30;3.10;;;2.80;;
12880;SDS011;6508;53.786;9.996;2022-08-21T07:51:58;3.55;;;3.25;;
12880;SDS011;6508;53.786;9.996;2022-08-21T07:54:26;3.00;;;2.78;;
12880;SDS011;6508;53.786;9.996;2022-08-21T07:56:59;3.10;;;2.70;;
12880;SDS011;6508;53.786;9.996;2022-08-21T07:59:27;2.80;;;2.60;;
12880;SDS011;6508;53.786;9.996;2022-08-21T08:01:54;2.50;;;2.40;;
12880;SDS011;6508;53.786;9.996;2022-08-21T08:04:23;2.88;;;2.67;;
12880;SDS011;6508;53.786;9.996;2022-08-21T08:06:53;2.50;;;2.40;;
12880;SDS011;6508;53.786;9.996;2022-08-21T08:09:21;4.47;;;2.65;;
12880;SDS011;6508;53.786;9.996;2022-08-21T08:11:48;2.60;;;2.45;;
12880;SDS011;6508;53.786;9.996;2022-08-21T08:14:16;2.13;;;1.85;;
12880;SDS011;6508;53.786;9.996;2022-08-21T08:16:44;2.53;;;2.33;;
12880;SDS011;6508;53.786;9.996;2022-08-21T08:19:11;2.65;;;2.30;;
12880;SDS011;6508;53.786;9.996;2022-08-21T08:21:39;2.13;;;2.03;;
12880;SDS011;6508;53.786;9.996;2022-08-21T08:24:08;2.83;;;2.40;;
12880;SDS011;6508;53.786;9.996;2022-08-21T08:26:45;3.67;;;2.00;;
12880;SDS011;6508;53.786;9.996;2022-08-21T08:29:19;2.92;;;2.30;;
12880;SDS011;6508;53.786;9.996;2022-08-21T08:31:47;2.30;;;2.20;;
12880;SDS011;6508;53.786;9.996;2022-08-21T08:34:17;2.38;;;2.20;;
12880;SDS011;6508;53.786;9.996;2022-08-21T08:36:51;2.90;;;2.30;;
12880;SDS011;6508;53.786;9.996;2022-08-21T08:39:20;2.63;;;2.42;;
12880;SDS011;6508;53.786;9.996;2022-08-21T08:41:56;2.78;;;2.45;;
12880;SDS011;6508;53.786;9.996;2022-08-21T08:44:26;2.33;;;2.22;;
12880;SDS011;6508;53.786;9.996;2022-08-21T08:46:55;2.88;;;2.58;;
12880;SDS011;6508;53.786;9.996;2022-08-21T08:49:27;2.78;;;2.53;;
12880;SDS011;6508;53.786;9.996;2022-08-21T08:51:58;3.83;;;2.40;;
12880;SDS011;6508;53.786;9.996;2022-08-21T08:54:28;2.50;;;2.25;;
12880;SDS011;6508;53.786;9.996;2022-08-21T08:56:58;2.15;;;2.05;;
12880;SDS011;6508;53.786;9.996;2022-08-21T08:59:27;2.78;;;2.50;;
12880;SDS011;6508;53.786;9.996;2022-08-21T09:01:55;3.08;;;2.58;;
12880;SDS011;6508;53.786;9.996;2022-08-21T09:04:24;3.15;;;2.90;;
12880;SDS011;6508;53.786;9.996;2022-08-21T09:07:00;3.65;;;2.70;;
12880;SDS011;6508;53.786;9.996;2022-08-21T09:09:34;4.95;;;2.97;;
12880;SDS011;6508;53.786;9.996;2022-08-21T09:12:06;3.97;;;3.08;;
12880;SDS011;6508;53.786;9.996;2022-08-21T09:14:47;2.65;;;2.42;;
12880;SDS011;6508;53.786;9.996;2022-08-21T09:17:19;3.25;;;2.65;;
12880;SDS011;6508;53.786;9.996;2022-08-21T09:19:54;2.83;;;2.63;;
12880;SDS011;6508;53.786;9.996;2022-08-21T09:22:26;4.38;;;3.10;;
12880;SDS011;6508;53.786;9.996;2022-08-21T09:25:01;3.38;;;3.08;;
12880;SDS011;6508;53.786;9.996;2022-08-21T09:27:29;3.20;;;2.90;;
12880;SDS011;6508;53.786;9.996;2022-08-21T09:29:58;3.55;;;2.72;;
12880;SDS011;6508;53.786;9.996;2022-08-21T09:32:27;3.55;;;3.05;;
12880;SDS011;6508;53.786;9.996;2022-08-21T09:35:04;3.95;;;2.65;;
12880;SDS011;6508;53.786;9.996;2022-08-21T09:37:33;2.85;;;2.65;;
12880;SDS011;6508;53.786;9.996;2022-08-21T09:40:14;4.03;;;3.33;;
12880;SDS011;6508;53.786;9.996;2022-08-21T09:42:53;4.35;;;2.90;;
12880;SDS011;6508;53.786;9.996;2022-08-21T09:45:22;3.03;;;2.83;;
12880;SDS011;6508;53.786;9.996;2022-08-21T09:47:50;3.20;;;2.80;;
12880;SDS011;6508;53.786;9.996;2022-08-21T09:50:19;3.65;;;3.35;;
12880;SDS011;6508;53.786;9.996;2022-08-21T09:52:48;4.25;;;3.30;;
12880;SDS011;6508;53.786;9.996;2022-08-21T09:55:24;4.18;;;3.40;;
12880;SDS011;6508;53.786;9.996;2022-08-21T09:58:14;3.25;;;2.95;;
12880;SDS011;6508;53.786;9.996;2022-08-21T10:00:42;3.53;;;3.22;;
12880;SDS011;6508;53.786;9.996;2022-08-21T10:03:12;3.97;;;3.38;;
12880;SDS011;6508;53.786;9.996;2022-08-21T10:05:49;4.07;;;3.55;;
12880;SDS011;6508;53.786;9.996;2022-08-21T10:08:18;5.18;;;3.45;;
12880;SDS011;6508;53.786;9.996;2022-08-21T10:10:49;3.83;;;3.50;;
12880;SDS011;6508;53.786;9.996;2022-08-21T10:13:25;4.50;;;3.30;;
12880;SDS011;6508;53.786;9.996;2022-08-21T10:15:57;5.40;;;3.60;;
12880;SDS011;6508;53.786;9.996;2022-08-21T10:18:30;3.60;;;3.40;;
12880;SDS011;6508;53.786;9.996;2022-08-21T10:21:01;3.90;;;3.50;;
12880;SDS011;6508;53.786;9.996;2022-08-21T10:23:37;3.65;;;3.38;;
12880;SDS011;6508;53.786;9.996;2022-08-21T10:26:11;3.58;;;3.35;;
12880;SDS011;6508;53.786;9.996;2022-08-21T10:28:46;4.28;;;3.88;;
12880;SDS011;6508;53.786;9.996;2022-08-21T10:31:18;4.80;;;3.58;;
12880;SDS011;6508;53.786;9.996;2022-08-21T10:33:50;3.67;;;3.40;;
12880;SDS011;6508;53.786;9.996;2022-08-21T10:36:21;4.00;;;3.70;;
12880;SDS011;6508;53.786;9.996;2022-08-21T10:38:56;3.80;;;3.53;;
12880;SDS011;6508;53.786;9.996;2022-08-21T10:41:52;4.32;;;3.67;;
12880;SDS011;6508;53.786;9.996;2022-08-21T10:44:27;8.57;;;3.17;;
12880;SDS011;6508;53.786;9.996;2022-08-21T10:46:58;3.60;;;2.97;;
12880;SDS011;6508;53.786;9.996;2022-08-21T10:49:31;3.63;;;3.28;;
12880;SDS011;6508;53.786;9.996;2022-08-21T10:52:04;3.35;;;3.05;;
12880;SDS011;6508;53.786;9.996;2022-08-21T10:54:37;3.40;;;3.10;;
12880;SDS011;6508;53.786;9.996;2022-08-21T10:57:11;3.65;;;3.35;;
12880;SDS011;6508;53.786;9.996;2022-08-21T10:59:42;3.70;;;3.42;;
12880;SDS011;6508;53.786;9.996;2022-08-21T11:02:13;3.03;;;2.80;;
12880;SDS011;6508;53.786;9.996;2022-08-21T11:04:45;3.50;;;3.22;;
12880;SDS011;6508;53.786;9.996;2022-08-21T11:07:17;3.50;;;3.20;;
12880;SDS011;6508;53.786;9.996;2022-08-21T11:09:47;4.20;;;3.00;;
12880;SDS011;6508;53.786;9.996;2022-08-21T11:12:19;3.00;;;2.90;;
12880;SDS011;6508;53.786;9.996;2022-08-21T11:14:53;3.22;;;3.05;;
12880;SDS011;6508;53.786;9.996;2022-08-21T11:17:24;3.30;;;3.08;;
12880;SDS011;6508;53.786;9.996;2022-08-21T11:19:59;3.25;;;3.03;;
12880;SDS011;6508;53.786;9.996;2022-08-21T11:22:32;3.05;;;2.90;;
12880;SDS011;6508;53.786;9.996;2022-08-21T11:25:03;3.30;;;3.10;;
12880;SDS011;6508;53.786;9.996;2022-08-21T11:27:36;3.25;;;2.60;;
12880;SDS011;6508;53.786;9.996;2022-08-21T11:30:06;3.47;;;2.85;;
12880;SDS011;6508;53.786;9.996;2022-08-21T11:35:22;3.45;;;3.15;;
12880;SDS011;6508;53.786;9.996;2022-08-21T11:37:56;3.22;;;3.08;;
12880;SDS011;6508;53.786;9.996;2022-08-21T11:40:31;3.33;;;3.13;;
12880;SDS011;6508;53.786;9.996;2022-08-21T11:43:06;3.22;;;3.13;;
12880;SDS011;6508;53.786;9.996;2022-08-21T11:45:39;3.10;;;2.90;;
12880;SDS011;6508;53.786;9.996;2022-08-21T11:48:12;3.17;;;2.95;;
12880;SDS011;6508;53.786;9.996;2022-08-21T11:50:42;3.40;;;3.10;;
12880;SDS011;6508;53.786;9.996;2022-08-21T11:53:11;3.20;;;3.05;;
12880;SDS011;6508;53.786;9.996;2022-08-21T11:55:41;4.20;;;3.05;;
12880;SDS011;6508;53.786;9.996;2022-08-21T11:58:14;2.95;;;2.85;;
12880;SDS011;6508;53.786;9.996;2022-08-21T12:00:45;3.20;;;3.00;;
12880;SDS011;6508;53.786;9.996;2022-08-21T12:03:15;4.78;;;3.47;;
12880;SDS011;6508;53.786;9.996;2022-08-21T12:05:51;3.30;;;3.10;;
12880;SDS011;6508;53.786;9.996;2022-08-21T12:08:26;3.10;;;3.00;;
12880;SDS011;6508;53.786;9.996;2022-08-21T12:10:59;3.60;;;3.40;;
12880;SDS011;6508;53.786;9.996;2022-08-21T12:13:29;3.28;;;3.08;;
12880;SDS011;6508;53.786;9.996;2022-08-21T12:16:07;3.40;;;3.17;;
12880;SDS011;6508;53.786;9.996;2022-08-21T12:18:34;3.30;;;3.10;;
12880;SDS011;6508;53.786;9.996;2022-08-21T12:21:05;3.78;;;3.13;;
12880;SDS011;6508;53.786;9.996;2022-08-21T12:23:44;2.92;;;2.83;;
12880;SDS011;6508;53.786;9.996;2022-08-21T12:29:06;3.35;;;3.20;;
12880;SDS011;6508;53.786;9.996;2022-08-21T12:31:46;2.95;;;2.75;;
12880;SDS011;6508;53.786;9.996;2022-08-21T12:34:14;2.92;;;2.70;;
12880;SDS011;6508;53.786;9.996;2022-08-21T12:36:43;2.95;;;2.85;;
12880;SDS011;6508;53.786;9.996;2022-08-21T12:39:13;3.30;;;3.00;;
12880;SDS011;6508;53.786;9.996;2022-08-21T12:41:43;3.00;;;2.90;;
12880;SDS011;6508;53.786;9.996;2022-08-21T12:44:14;3.10;;;3.00;;
12880;SDS011;6508;53.786;9.996;2022-08-21T12:46:43;3.20;;;3.00;;
12880;SDS011;6508;53.786;9.996;2022-08-21T12:49:14;3.20;;;3.10;;
12880;SDS011;6508;53.786;9.996;2022-08-21T12:51:47;3.30;;;3.10;;
12880;SDS011;6508;53.786;9.996;2022-08-21T12:54:22;2.70;;;2.60;;
12880;SDS011;6508;53.786;9.996;2022-08-21T12:56:58;2.95;;;2.85;;
12880;SDS011;6508;53.786;9.996;2022-08-21T12:59:28;2.70;;;2.60;;
12880;SDS011;6508;53.786;9.996;2022-08-21T13:01:56;2.70;;;2.60;;
12880;SDS011;6508;53.786;9.996;2022-08-21T13:04:26;3.40;;;3.10;;
12880;SDS011;6508;53.786;9.996;2022-08-21T13:06:56;2.85;;;2.65;;
12880;SDS011;6508;53.786;9.996;2022-08-21T13:09:27;3.10;;;2.92;;
12880;SDS011;6508;53.786;9.996;2022-08-21T13:11:55;2.88;;;2.78;;
12880;SDS011;6508;53.786;9.996;2022-08-21T13:14:28;2.58;;;2.47;;
12880;SDS011;6508;53.786;9.996;2022-08-21T13:16:58;3.20;;;3.00;;
12880;SDS011;6508;53.786;9.996;2022-08-21T13:19:27;2.75;;;2.58;;
12880;SDS011;6508;53.786;9.996;2022-08-21T13:21:56;2.80;;;2.70;;
12880;SDS011;6508;53.786;9.996;2022-08-21T13:24:24;3.00;;;2.90;;
12880;SDS011;6508;53.786;9.996;2022-08-21T13:27:17;2.63;;;2.53;;
12880;SDS011;6508;53.786;9.996;2022-08-21T13:29:45;2.80;;;2.70;;
12880;SDS011;6508;53.786;9.996;2022-08-21T13:32:22;2.65;;;2.55;;
12880;SDS011;6508;53.786;9.996;2022-08-21T13:34:54;2.70;;;2.50;;
12880;SDS011;6508;53.786;9.996;2022-08-21T13:37:22;2.50;;;2.40;;
12880;SDS011;6508;53.786;9.996;2022-08-21T13:39:51;2.58;;;2.47;;
12880;SDS011;6508;53.786;9.996;2022-08-21T13:42:19;2.60;;;2.50;;
12880;SDS011;6508;53.786;9.996;2022-08-21T13:44:50;2.75;;;2.65;;
12880;SDS011;6508;53.786;9.996;2022-08-21T13:47:19;3.85;;;2.67;;
12880;SDS011;6508;53.786;9.996;2022-08-21T13:49:51;2.63;;;2.42;;
12880;SDS011;6508;53.786;9.996;2022-08-21T13:52:25;2.30;;;2.20;;
12880;SDS011;6508;53.786;9.996;2022-08-21T13:54:54;2.75;;;2.30;;
12880;SDS011;6508;53.786;9.996;2022-08-21T13:57:25;2.53;;;2.42;;
12880;SDS011;6508;53.786;9.996;2022-08-21T13:59:53;2.88;;;2.67;;
12880;SDS011;6508;53.786;9.996;2022-08-21T14:02:37;3.38;;;2.60;;
12880;SDS011;6508;53.786;9.996;2022-08-21T14:05:08;2.88;;;2.78;;
12880;SDS011;6508;53.786;9.996;2022-08-21T14:07:41;2.70;;;2.60;;
12880;SDS011;6508;53.786;9.996;2022-08-21T14:10:11;2.60;;;2.40;;
12880;SDS011;6508;53.786;9.996;2022-08-21T14:12:40;2.63;;;2.53;;
12880;SDS011;6508;53.786;9.996;2022-08-21T14:15:09;2.92;;;2.80;;
12880;SDS011;6508;53.786;9.996;2022-08-21T14:17:40;2.33;;;2.13;;
12880;SDS011;6508;53.786;9.996;2022-08-21T14:20:10;2.65;;;2.50;;
12880;SDS011;6508;53.786;9.996;2022-08-21T14:22:40;2.67;;;2.58;;
12880;SDS011;6508;53.786;9.996;2022-08-21T14:25:10;2.63;;;2.53;;
12880;SDS011;6508;53.786;9.996;2022-08-21T14:27:39;2.83;;;2.30;;
12880;SDS011;6508;53.786;9.996;2022-08-21T14:30:09;2.70;;;2.60;;
12880;SDS011;6508;53.786;9.996;2022-08-21T14:32:41;3.03;;;2.60;;
12880;SDS011;6508;53.786;9.996;2022-08-21T14:35:12;2.22;;;2.13;;
12880;SDS011;6508;53.786;9.996;2022-08-21T14:37:41;2.42;;;2.33;;
12880;SDS011;6508;53.786;9.996;2022-08-21T14:40:09;2.40;;;2.20;;
12880;SDS011;6508;53.786;9.996;2022-08-21T14:42:39;2.40;;;2.20;;
12880;SDS011;6508;53.786;9.996;2022-08-21T14:45:10;2.38;;;2.28;;
12880;SDS011;6508;53.786;9.996;2022-08-21T14:47:40;2.97;;;2.78;;
12880;SDS011;6508;53.786;9.996;2022-08-21T14:50:09;2.20;;;2.10;;
12880;SDS011;6508;53.786;9.996;2022-08-21T14:52:39;4.13;;;2.42;;
12880;SDS011;6508;53.786;9.996;2022-08-21T14:55:07;3.03;;;2.72;;
12880;SDS011;6508;53.786;9.996;2022-08-21T14:57:36;2.88;;;2.67;;
12880;SDS011;6508;53.786;9.996;2022-08-21T15:00:05;2.65;;;2.45;;
12880;SDS011;6508;53.786;9.996;2022-08-21T15:02:32;2.40;;;2.30;;
12880;SDS011;6508;53.786;9.996;2022-08-21T15:05:00;2.33;;;2.22;;
12880;SDS011;6508;53.786;9.996;2022-08-21T15:07:28;2.45;;;2.35;;
12880;SDS011;6508;53.786;9.996;2022-08-21T15:09:57;2.50;;;2.40;;
12880;SDS011;6508;53.786;9.996;2022-08-21T15:12:24;2.45;;;2.35;;
12880;SDS011;6508;53.786;9.996;2022-08-21T15:14:52;2.75;;;2.55;;
12880;SDS011;6508;53.786;9.996;2022-08-21T15:17:20;2.50;;;2.40;;
12880;SDS011;6508;53.786;9.996;2022-08-21T15:19:48;2.25;;;2.15;;
12880;SDS011;6508;53.786;9.996;2022-08-21T15:22:15;2.10;;;2.00;;
12880;SDS011;6508;53.786;9.996;2022-08-21T15:24:45;2.30;;;2.20;;